Pagrindinis puslapis
METAR-TAF:

METAR-TAF

Oro uostai :

Kiruna, Švedija

platuma: 67-49N, ilguma: 020-20E, Aukštis: 452 m

Dabartinis oras

Ataskaita buvo paskelbta 24 minutes, ne 09:50 UTC
Vėjas 2 kt nuo kintamojo kryptimis
Temperatūra -5°C
Drėgmė 93%
Slėgis 972 hPa
Matomumas: 2000 m
sniegas

METAR: ESNQ 180950Z VRB02KT 2000 SN VV030 M05/M06 Q0972

Laikas: 11:14 (10:14 UTC)

Prognozė

Ataskaita buvo paskelbta 1 valandą ir 44 minutes, ne 08:30 UTC
Prognozė galioja nuo 18 metu 09 UTC su 18 metu 18 UTC
Vėjas 3 kt nuo kintamojo kryptimis
Matomumas: 8000 m
Išsisklaidę debesys ne aukštis 400 ft
Su prošvaistėmis ne aukštis 2000 ft
sniegas
Laikinai
nuo 18 metu 09 UTC su 18 metu 18 UTC
Matomumas: 1200 m
ne aukštis 400 ft
sniegas

TAF: ESNQ 180830Z 1809/1818 VRB03KT 8000 -SN SCT004 BKN020 TEMPO 1809/1818 1200 SN VV004

Orai ataskaitas ir orų prognozės (METAR, TAF).

turimą stotys yra geltonos ir raudonos taškus žemėlapyje.

Perkelti pele per norėdami pamatyti stoties vardą.

Tada spustelėkite, norėdami matyti oro stebėjimo ir prognozės.

Norėdami pakeisti žemėlapį: spustelėkite ant žalios mygtukų su juodo kryžiaus žemyn,; žalią mygtuką su brūkšneliu, jei norite nutolinti; arba žalių rodyklių gretimoms žemėlapius.


METAR-TAF: